createdAt,value
2022-08-16T00:01:24.410Z,81.29
2022-08-16T00:03:52.725Z,81.44
2022-08-16T00:06:19.473Z,81.75
2022-08-16T00:08:46.264Z,81.63
2022-08-16T00:11:15.615Z,81.89
2022-08-16T00:13:53.142Z,81.57
2022-08-16T00:17:06.162Z,81.68
2022-08-16T00:19:19.774Z,81.68
2022-08-16T00:21:53.209Z,81.50
2022-08-16T00:24:31.342Z,81.50
2022-08-16T00:27:02.047Z,81.22
2022-08-16T00:29:29.891Z,81.38
2022-08-16T00:32:01.036Z,81.69
2022-08-16T00:34:43.294Z,81.84
2022-08-16T00:37:17.251Z,81.71
2022-08-16T00:39:46.903Z,81.79
2022-08-16T00:42:14.621Z,81.96
2022-08-16T00:45:08.110Z,81.92
2022-08-16T00:47:39.320Z,82.14
2022-08-16T00:50:11.356Z,82.24
2022-08-16T00:52:45.569Z,82.31
2022-08-16T00:55:17.951Z,82.37
2022-08-16T00:57:58.512Z,82.35
2022-08-16T01:00:29.157Z,82.12
2022-08-16T01:02:58.303Z,82.31
2022-08-16T01:05:25.665Z,82.64
2022-08-16T01:07:54.062Z,82.77
2022-08-16T01:10:31.912Z,82.85
2022-08-16T01:13:06.638Z,82.89
2022-08-16T01:15:37.721Z,82.66
2022-08-16T01:18:40.618Z,83.01
2022-08-16T01:21:24.202Z,83.39
2022-08-16T01:24:52.437Z,83.45
2022-08-16T01:27:26.789Z,83.66
2022-08-16T01:30:20.693Z,83.58
2022-08-16T01:33:01.343Z,83.42
2022-08-16T01:35:52.706Z,83.46
2022-08-16T01:38:30.824Z,83.43
2022-08-16T01:41:19.909Z,83.28
2022-08-16T01:43:53.653Z,83.13
2022-08-16T01:46:29.954Z,83.04
2022-08-16T01:49:10.426Z,83.11
2022-08-16T01:51:39.403Z,83.04
2022-08-16T01:54:06.924Z,82.96
2022-08-16T01:56:34.759Z,83.17
2022-08-16T01:59:04.969Z,83.13
2022-08-16T02:01:33.197Z,82.92
2022-08-16T02:04:11.253Z,83.02
2022-08-16T02:06:46.106Z,82.84
2022-08-16T02:09:14.964Z,82.90
2022-08-16T02:11:48.439Z,82.83
2022-08-16T02:14:22.463Z,82.43
2022-08-16T02:16:55.188Z,82.46
2022-08-16T02:19:24.102Z,82.26
2022-08-16T02:22:34.602Z,82.27
2022-08-16T02:25:01.187Z,82.26
2022-08-16T02:27:28.139Z,82.27
2022-08-16T02:30:05.184Z,82.14
2022-08-16T02:32:50.708Z,82.11
2022-08-16T02:35:23.051Z,82.08
2022-08-16T02:37:52.533Z,82.03
2022-08-16T02:40:22.042Z,81.98
2022-08-16T02:42:50.824Z,82.14
2022-08-16T02:45:20.163Z,82.22
2022-08-16T02:48:00.264Z,82.07
2022-08-16T02:50:54.451Z,82.10
2022-08-16T02:53:18.260Z,82.05
2022-08-16T02:55:50.594Z,82.25
2022-08-16T02:58:18.105Z,82.05
2022-08-16T03:00:45.547Z,82.09
2022-08-16T03:03:18.048Z,81.96
2022-08-16T03:05:49.835Z,81.76
2022-08-16T03:08:51.239Z,81.57
2022-08-16T03:11:16.498Z,81.69
2022-08-16T03:13:51.218Z,81.27
2022-08-16T03:16:38.236Z,81.04
2022-08-16T03:19:07.700Z,81.19
2022-08-16T03:21:37.902Z,81.15
2022-08-16T03:24:28.354Z,81.02
2022-08-16T03:26:53.470Z,80.59
2022-08-16T03:29:30.562Z,80.55
2022-08-16T03:31:59.307Z,80.67
2022-08-16T03:34:27.751Z,80.80
2022-08-16T03:36:55.539Z,80.80
2022-08-16T03:39:22.667Z,80.66
2022-08-16T03:41:51.251Z,80.42
2022-08-16T03:44:43.758Z,80.41
2022-08-16T03:47:13.210Z,80.29
2022-08-16T03:49:51.551Z,80.16
2022-08-16T03:52:20.609Z,80.10
2022-08-16T03:54:57.586Z,80.10
2022-08-16T03:57:32.177Z,80.03
2022-08-16T04:00:36.045Z,80.08
2022-08-16T04:03:08.592Z,79.82
2022-08-16T04:05:44.036Z,80.08
2022-08-16T04:08:22.752Z,79.86
2022-08-16T04:10:53.110Z,79.72
2022-08-16T04:13:20.933Z,79.80
2022-08-16T04:16:06.963Z,79.66
2022-08-16T04:18:36.843Z,79.55
2022-08-16T04:21:03.889Z,79.75
2022-08-16T04:23:30.736Z,79.85
2022-08-16T04:25:58.187Z,79.57
2022-08-16T04:28:54.986Z,79.55
2022-08-16T04:31:15.817Z,79.51
2022-08-16T04:33:50.500Z,79.55
2022-08-16T04:36:20.038Z,79.34
2022-08-16T04:38:47.219Z,79.56
2022-08-16T04:41:17.349Z,79.21
2022-08-16T04:43:44.862Z,79.20
2022-08-16T04:46:19.869Z,79.10
2022-08-16T04:49:01.866Z,79.27
2022-08-16T04:51:28.522Z,79.10
2022-08-16T04:54:03.859Z,79.15
2022-08-16T04:56:31.100Z,79.09
2022-08-16T04:58:58.082Z,79.14
2022-08-16T05:01:57.575Z,79.05
2022-08-16T05:04:19.605Z,79.10
2022-08-16T05:06:47.049Z,79.19
2022-08-16T05:09:14.526Z,78.97
2022-08-16T05:11:43.244Z,78.76
2022-08-16T05:14:09.912Z,78.80
2022-08-16T05:16:36.813Z,78.63
2022-08-16T05:19:05.031Z,78.90
2022-08-16T05:21:38.906Z,78.76
2022-08-16T05:24:07.589Z,78.75
2022-08-16T05:26:43.261Z,78.56
2022-08-16T05:29:18.391Z,78.34
2022-08-16T05:31:48.193Z,78.50
2022-08-16T05:34:22.312Z,78.62
2022-08-16T05:36:51.261Z,78.39
2022-08-16T05:39:20.574Z,78.10
2022-08-16T05:41:47.683Z,78.24
2022-08-16T05:44:24.192Z,78.05
2022-08-16T05:46:57.101Z,77.96
2022-08-16T05:49:38.291Z,77.95
2022-08-16T05:52:10.697Z,77.76
2022-08-16T05:54:46.811Z,77.73
2022-08-16T05:57:16.069Z,77.83
2022-08-16T05:59:44.212Z,77.66
2022-08-16T06:02:11.066Z,77.80
2022-08-16T06:04:37.949Z,77.67
2022-08-16T06:07:26.173Z,77.45
2022-08-16T06:09:56.308Z,77.34
2022-08-16T06:12:27.095Z,77.15
2022-08-16T06:15:04.272Z,77.07
2022-08-16T06:17:43.375Z,76.90
2022-08-16T06:20:24.014Z,76.66
2022-08-16T06:22:58.639Z,76.80
2022-08-16T06:25:36.321Z,76.79
2022-08-16T06:28:10.280Z,76.65
2022-08-16T06:30:45.305Z,76.61
2022-08-16T06:33:19.861Z,76.73
2022-08-16T06:35:55.246Z,76.46
2022-08-16T06:38:33.362Z,76.43
2022-08-16T06:41:03.894Z,76.14
2022-08-16T06:43:31.058Z,75.69
2022-08-16T06:45:59.296Z,75.48
2022-08-16T06:48:33.021Z,75.19
2022-08-16T06:51:02.941Z,75.07
2022-08-16T06:53:33.815Z,74.89
2022-08-16T06:56:06.060Z,74.95
2022-08-16T06:58:41.075Z,74.95
2022-08-16T07:01:09.941Z,75.06
2022-08-16T07:03:55.380Z,74.78
2022-08-16T07:06:26.761Z,74.96
2022-08-16T07:08:54.316Z,74.75
2022-08-16T07:11:21.033Z,74.60
2022-08-16T07:14:24.102Z,74.34
2022-08-16T07:16:58.188Z,74.37
2022-08-16T07:20:01.641Z,73.74
2022-08-16T07:22:37.528Z,73.57
2022-08-16T07:25:00.386Z,73.66
2022-08-16T07:27:27.688Z,72.90
2022-08-16T07:29:55.705Z,72.51
2022-08-16T07:32:29.470Z,72.40
2022-08-16T07:34:56.637Z,72.11
2022-08-16T07:37:24.115Z,71.65
2022-08-16T07:39:51.731Z,71.48
2022-08-16T07:42:28.576Z,71.12
2022-08-16T07:45:07.609Z,70.77
2022-08-16T07:47:44.990Z,70.57
2022-08-16T07:50:55.057Z,70.42
2022-08-16T07:53:02.004Z,70.04
2022-08-16T07:55:29.287Z,69.95
2022-08-16T07:58:18.499Z,69.64
2022-08-16T08:01:01.713Z,69.71
2022-08-16T08:03:39.233Z,69.52
2022-08-16T08:06:10.350Z,69.39
2022-08-16T08:08:50.640Z,69.06
2022-08-16T08:11:19.631Z,69.26
2022-08-16T08:13:49.127Z,69.19
2022-08-16T08:16:19.642Z,68.85
2022-08-16T08:18:49.759Z,68.61
2022-08-16T08:21:27.330Z,68.47
2022-08-16T08:23:57.766Z,68.21
2022-08-16T08:26:25.321Z,68.20
2022-08-16T08:28:52.783Z,67.89
2022-08-16T08:31:20.200Z,67.87
2022-08-16T08:33:51.382Z,67.73
2022-08-16T08:36:33.155Z,67.36
2022-08-16T08:39:00.571Z,67.39
2022-08-16T08:41:29.412Z,67.50
2022-08-16T08:43:58.290Z,66.93
2022-08-16T08:46:25.868Z,66.09
2022-08-16T08:48:59.686Z,65.38
2022-08-16T08:51:35.900Z,65.01
2022-08-16T08:54:09.173Z,64.49
2022-08-16T08:56:37.805Z,64.98
2022-08-16T08:59:16.477Z,64.34
2022-08-16T09:01:57.246Z,63.23
2022-08-16T09:04:26.590Z,62.54
2022-08-16T09:06:54.564Z,61.91
2022-08-16T09:09:23.328Z,60.84
2022-08-16T09:12:04.231Z,60.74
2022-08-16T09:14:34.177Z,61.47
2022-08-16T09:17:11.492Z,61.95
2022-08-16T09:19:44.434Z,61.42
2022-08-16T09:22:19.902Z,61.05
2022-08-16T09:24:53.285Z,61.07
2022-08-16T09:27:23.478Z,60.96
2022-08-16T09:29:59.747Z,61.24
2022-08-16T09:32:30.672Z,60.90
2022-08-16T09:34:59.857Z,60.87
2022-08-16T09:37:29.429Z,60.93
2022-08-16T09:40:01.137Z,60.32
2022-08-16T09:42:29.252Z,59.83
2022-08-16T09:45:11.371Z,58.59
2022-08-16T09:47:56.785Z,59.08
2022-08-16T09:50:37.190Z,58.53
2022-08-16T09:53:14.862Z,58.44
2022-08-16T09:55:49.615Z,58.37
2022-08-16T09:58:41.759Z,58.00
2022-08-16T10:01:06.813Z,56.76
2022-08-16T10:03:35.651Z,56.41
2022-08-16T10:06:02.417Z,56.70
2022-08-16T10:08:29.241Z,56.89
2022-08-16T10:11:14.811Z,56.99
2022-08-16T10:13:50.740Z,56.46
2022-08-16T10:16:17.508Z,54.26
2022-08-16T10:19:06.695Z,53.56
2022-08-16T10:21:34.064Z,53.63
2022-08-16T10:24:02.255Z,53.86
2022-08-16T10:27:19.135Z,54.24
2022-08-16T10:29:20.018Z,54.78
2022-08-16T10:31:53.239Z,55.19
2022-08-16T10:34:31.416Z,55.41
2022-08-16T10:37:02.528Z,55.20
2022-08-16T10:39:41.566Z,55.96
2022-08-16T10:42:09.493Z,56.30
2022-08-16T10:44:36.940Z,56.46
2022-08-16T10:47:04.444Z,56.62
2022-08-16T10:49:32.374Z,56.49
2022-08-16T10:52:01.490Z,56.74
2022-08-16T10:54:31.290Z,56.75
2022-08-16T10:57:04.415Z,56.97
2022-08-16T10:59:45.125Z,56.58
2022-08-16T11:02:58.726Z,56.75
2022-08-16T11:05:12.504Z,56.81
2022-08-16T11:07:54.829Z,56.43
2022-08-16T11:19:05.781Z,56.21
2022-08-16T11:24:42.798Z,56.63
2022-08-16T11:27:35.524Z,56.46
2022-08-16T11:30:02.908Z,56.47
2022-08-16T11:32:36.409Z,56.06
2022-08-16T11:35:11.031Z,56.49
2022-08-16T11:40:40.738Z,56.72
2022-08-16T11:43:11.530Z,57.03
2022-08-16T11:45:38.543Z,56.84
2022-08-16T11:48:05.952Z,57.17
2022-08-16T11:50:34.013Z,56.97
2022-08-16T11:53:08.316Z,57.24
2022-08-16T11:55:38.111Z,57.62
2022-08-16T11:58:06.986Z,57.96
2022-08-16T12:00:51.696Z,57.82
2022-08-16T12:03:31.088Z,57.68
2022-08-16T12:06:11.181Z,57.33
2022-08-16T12:08:52.308Z,57.35
2022-08-16T12:11:19.571Z,57.56
2022-08-16T12:13:49.150Z,57.73
2022-08-16T12:16:20.438Z,57.65
2022-08-16T12:18:50.203Z,57.82
2022-08-16T12:21:17.355Z,58.03
2022-08-16T12:23:47.688Z,58.15
2022-08-16T12:26:14.348Z,58.29
2022-08-16T12:28:55.010Z,58.15
2022-08-16T12:31:23.940Z,57.80
2022-08-16T12:33:50.829Z,58.00
2022-08-16T12:36:21.659Z,58.24
2022-08-16T12:38:48.924Z,57.69
2022-08-16T12:41:24.596Z,57.91
2022-08-16T12:43:53.357Z,57.68
2022-08-16T12:46:24.668Z,57.61
2022-08-16T12:49:01.043Z,57.15
2022-08-16T12:51:58.846Z,57.76
2022-08-16T12:54:22.775Z,57.55
2022-08-16T12:56:50.398Z,57.34
2022-08-16T12:59:20.469Z,57.59
2022-08-16T13:01:50.505Z,57.57
2022-08-16T13:04:24.618Z,57.61
2022-08-16T13:06:52.899Z,57.26
2022-08-16T13:09:23.395Z,57.16
2022-08-16T13:12:03.745Z,57.29
2022-08-16T13:14:41.095Z,56.89
2022-08-16T13:17:16.986Z,56.87
2022-08-16T13:22:33.146Z,56.54
2022-08-16T13:24:59.938Z,56.42
2022-08-16T13:28:02.403Z,55.77
2022-08-16T13:30:36.537Z,56.11
2022-08-16T13:33:11.271Z,55.83
2022-08-16T13:35:44.207Z,55.42
2022-08-16T13:38:24.940Z,55.22
2022-08-16T13:40:57.123Z,55.19
2022-08-16T13:43:27.366Z,55.04
2022-08-16T13:45:56.304Z,54.51
2022-08-16T13:48:37.050Z,54.68
2022-08-16T13:51:16.982Z,54.25
2022-08-16T13:53:54.395Z,53.55
2022-08-16T13:56:37.222Z,53.50
2022-08-16T13:59:19.512Z,53.34
2022-08-16T14:02:02.659Z,53.32
2022-08-16T14:04:34.147Z,52.99
2022-08-16T14:07:05.269Z,52.88
2022-08-16T14:09:34.441Z,52.71
2022-08-16T14:12:09.576Z,52.30
2022-08-16T14:14:36.938Z,51.95
2022-08-16T14:17:04.365Z,52.00
2022-08-16T14:19:31.193Z,51.92
2022-08-16T14:22:14.191Z,51.41
2022-08-16T14:24:47.412Z,51.27
2022-08-16T14:27:17.118Z,51.25
2022-08-16T14:29:44.906Z,52.43
2022-08-16T14:32:21.935Z,51.34
2022-08-16T14:35:00.624Z,51.08
2022-08-16T14:37:27.881Z,51.58
2022-08-16T14:39:57.908Z,50.86
2022-08-16T14:42:25.870Z,50.99
2022-08-16T14:44:53.276Z,51.21
2022-08-16T14:47:22.364Z,51.28
2022-08-16T14:49:49.516Z,51.65
2022-08-16T14:52:44.382Z,51.03
2022-08-16T14:55:10.822Z,51.16
2022-08-16T14:57:39.152Z,51.28
2022-08-16T15:00:11.189Z,51.28
2022-08-16T15:02:40.319Z,51.71
2022-08-16T15:05:09.431Z,51.34
2022-08-16T15:07:36.427Z,51.50
2022-08-16T15:10:12.062Z,51.46
2022-08-16T15:12:56.384Z,51.25
2022-08-16T15:15:29.176Z,51.76
2022-08-16T15:17:57.352Z,52.18
2022-08-16T15:20:29.427Z,52.59
2022-08-16T15:23:01.697Z,52.35
2022-08-16T15:25:33.420Z,52.23
2022-08-16T15:28:05.697Z,51.98
2022-08-16T15:30:59.913Z,51.75
2022-08-16T15:33:27.356Z,51.99
2022-08-16T15:35:55.338Z,51.65
2022-08-16T15:38:54.603Z,51.94
2022-08-16T15:41:32.659Z,51.40
2022-08-16T15:44:05.093Z,51.86
2022-08-16T15:46:56.662Z,51.49
2022-08-16T15:49:37.641Z,51.50
2022-08-16T15:52:18.396Z,51.85
2022-08-16T15:54:52.481Z,51.85
2022-08-16T15:57:24.761Z,51.75
2022-08-16T15:59:55.984Z,51.79
2022-08-16T16:02:30.679Z,51.66
2022-08-16T16:05:09.883Z,51.35
2022-08-16T16:07:55.911Z,51.16
2022-08-16T16:10:29.492Z,50.80
2022-08-16T16:13:01.762Z,50.58
2022-08-16T16:15:33.582Z,50.50
2022-08-16T16:18:09.551Z,50.58
2022-08-16T16:20:43.830Z,50.74
2022-08-16T16:23:11.391Z,50.98
2022-08-16T16:25:43.866Z,50.90
2022-08-16T16:29:06.255Z,50.55
2022-08-16T16:31:07.603Z,50.68
2022-08-16T16:33:38.536Z,50.61
2022-08-16T16:36:07.162Z,50.67
2022-08-16T16:38:35.060Z,50.40
2022-08-16T16:41:08.981Z,50.12
2022-08-16T16:43:41.086Z,50.20
2022-08-16T16:46:40.849Z,50.58
2022-08-16T16:48:55.590Z,50.10
2022-08-16T16:51:23.004Z,50.45
2022-08-16T16:53:56.196Z,50.27
2022-08-16T16:56:27.797Z,49.57
2022-08-16T16:59:06.225Z,49.07
2022-08-16T17:01:56.988Z,49.15
2022-08-16T17:04:27.460Z,49.09
2022-08-16T17:06:59.138Z,48.79
2022-08-16T17:09:26.149Z,48.89
2022-08-16T17:11:55.343Z,49.15
2022-08-16T17:14:32.143Z,49.06
2022-08-16T17:17:08.463Z,48.75
2022-08-16T17:19:41.106Z,48.74
2022-08-16T17:22:16.512Z,48.70
2022-08-16T17:24:50.415Z,49.33
2022-08-16T17:27:32.609Z,49.12
2022-08-16T17:30:14.829Z,48.67
2022-08-16T17:32:48.682Z,48.95
2022-08-16T17:35:22.850Z,48.90
2022-08-16T17:37:51.771Z,48.85
2022-08-16T17:40:40.978Z,48.85
2022-08-16T17:43:19.159Z,48.88
2022-08-16T17:45:46.353Z,49.33
2022-08-16T17:48:13.767Z,49.03
2022-08-16T17:50:41.829Z,48.50
2022-08-16T17:53:11.136Z,48.57
2022-08-16T17:55:40.079Z,48.38
2022-08-16T17:58:23.282Z,48.21
2022-08-16T18:00:56.961Z,48.20
2022-08-16T18:04:07.713Z,49.32
2022-08-16T18:06:18.673Z,49.24
2022-08-16T18:08:51.297Z,49.26
2022-08-16T18:11:26.295Z,48.85
2022-08-16T18:13:54.732Z,48.65
2022-08-16T18:16:21.438Z,48.43
2022-08-16T18:18:48.164Z,48.44
2022-08-16T18:21:33.690Z,48.25
2022-08-16T18:24:00.676Z,48.46
2022-08-16T18:26:27.377Z,48.86
2022-08-16T18:28:54.125Z,48.76
2022-08-16T18:31:20.818Z,49.08
2022-08-16T18:33:47.554Z,48.73
2022-08-16T18:36:19.949Z,48.78
2022-08-16T18:38:48.444Z,48.78
2022-08-16T18:41:15.195Z,48.48
2022-08-16T18:44:00.952Z,48.59
2022-08-16T18:46:28.599Z,48.29
2022-08-16T18:48:55.238Z,48.58
2022-08-16T18:51:25.172Z,48.45
2022-08-16T18:53:52.760Z,48.19
2022-08-16T18:56:19.753Z,48.11
2022-08-16T18:58:49.531Z,48.23
2022-08-16T19:01:16.443Z,48.32
2022-08-16T19:03:43.504Z,48.67
2022-08-16T19:06:14.038Z,48.90
2022-08-16T19:08:43.463Z,49.08
2022-08-16T19:11:13.939Z,48.84
2022-08-16T19:13:44.313Z,48.91
2022-08-16T19:16:12.726Z,48.83
2022-08-16T19:18:40.221Z,49.47
2022-08-16T19:21:09.448Z,49.32
2022-08-16T19:23:37.392Z,49.53
2022-08-16T19:26:10.935Z,49.61
2022-08-16T19:28:58.874Z,49.74
2022-08-16T19:31:29.523Z,49.72
2022-08-16T19:33:57.085Z,50.04
2022-08-16T19:36:35.190Z,49.94
2022-08-16T19:39:08.646Z,50.14
2022-08-16T19:41:38.230Z,50.14
2022-08-16T19:44:05.936Z,50.19
2022-08-16T19:46:33.362Z,50.06
2022-08-16T19:49:00.354Z,50.39
2022-08-16T19:51:27.585Z,50.69
2022-08-16T19:53:54.404Z,50.92
2022-08-16T19:56:23.165Z,51.14
2022-08-16T19:59:17.015Z,51.06
2022-08-16T20:01:41.937Z,51.13
2022-08-16T20:04:12.327Z,51.67
2022-08-16T20:06:40.082Z,51.63
2022-08-16T20:09:07.241Z,51.70
2022-08-16T20:11:35.441Z,51.89
2022-08-16T20:14:02.791Z,51.94
2022-08-16T20:16:29.553Z,52.21
2022-08-16T20:18:56.235Z,52.31
2022-08-16T20:21:22.952Z,52.41
2022-08-16T20:23:50.088Z,52.66
2022-08-16T20:26:18.462Z,52.65
2022-08-16T20:28:52.682Z,52.64
2022-08-16T20:31:22.067Z,52.51
2022-08-16T20:33:49.027Z,52.70
2022-08-16T20:36:16.544Z,52.93
2022-08-16T20:38:46.884Z,52.87
2022-08-16T20:41:14.230Z,52.86
2022-08-16T20:43:40.911Z,53.12
2022-08-16T20:46:07.910Z,53.00
2022-08-16T20:48:35.674Z,53.07
2022-08-16T20:51:02.364Z,53.28
2022-08-16T20:53:29.109Z,53.59
2022-08-16T20:55:56.364Z,53.19
2022-08-16T20:58:23.043Z,52.99
2022-08-16T21:00:50.178Z,52.98
2022-08-16T21:03:16.934Z,53.10
2022-08-16T21:05:45.367Z,53.25
2022-08-16T21:08:46.552Z,53.13
2022-08-16T21:11:02.993Z,53.01
2022-08-16T21:13:30.976Z,53.03
2022-08-16T21:15:58.848Z,52.93
2022-08-16T21:18:26.799Z,52.95
2022-08-16T21:20:54.787Z,53.15
2022-08-16T21:23:21.617Z,53.18
2022-08-16T21:25:57.897Z,53.40
2022-08-16T21:28:39.995Z,53.47
2022-08-16T21:31:10.986Z,53.79
2022-08-16T21:33:41.007Z,53.85
2022-08-16T21:36:08.136Z,54.29
2022-08-16T21:38:35.188Z,54.12
2022-08-16T21:41:03.522Z,54.21
2022-08-16T21:43:32.765Z,54.17
2022-08-16T21:46:01.555Z,54.23
2022-08-16T21:48:34.346Z,54.13
2022-08-16T21:51:07.965Z,54.34
2022-08-16T21:53:34.793Z,54.27
2022-08-16T21:56:02.802Z,54.30
2022-08-16T21:58:33.775Z,54.53
2022-08-16T22:01:01.793Z,54.64
2022-08-16T22:03:32.940Z,54.78
2022-08-16T22:06:12.575Z,54.71
2022-08-16T22:08:48.992Z,54.54
2022-08-16T22:11:22.870Z,54.75
2022-08-16T22:13:57.953Z,54.85
2022-08-16T22:16:34.625Z,54.98
2022-08-16T22:19:02.066Z,54.71
2022-08-16T22:21:29.514Z,54.77
2022-08-16T22:23:58.666Z,54.76
2022-08-16T22:26:33.686Z,54.93
2022-08-16T22:29:04.654Z,55.00
2022-08-16T22:31:32.314Z,55.08
2022-08-16T22:34:02.034Z,55.39
2022-08-16T22:36:29.868Z,55.37
2022-08-16T22:38:58.964Z,55.20
2022-08-16T22:41:28.585Z,55.34
2022-08-16T22:43:55.716Z,55.53
2022-08-16T22:46:22.517Z,55.78
2022-08-16T22:48:50.576Z,55.98
2022-08-16T22:51:23.135Z,56.01
2022-08-16T22:53:50.213Z,56.06
2022-08-16T22:56:17.636Z,56.20
2022-08-16T22:58:45.823Z,56.09
2022-08-16T23:01:13.098Z,56.27
2022-08-16T23:03:40.372Z,56.27
2022-08-16T23:06:08.596Z,56.45
2022-08-16T23:08:39.569Z,56.50
2022-08-16T23:11:15.132Z,56.46
2022-08-16T23:13:52.804Z,56.59
2022-08-16T23:16:23.002Z,56.71
2022-08-16T23:18:53.472Z,57.15
2022-08-16T23:21:20.989Z,57.32
2022-08-16T23:23:49.150Z,57.39
2022-08-16T23:26:46.083Z,57.25
2022-08-16T23:29:07.233Z,57.47
2022-08-16T23:31:47.627Z,57.64
2022-08-16T23:34:14.428Z,57.86
2022-08-16T23:36:41.053Z,57.98
2022-08-16T23:39:07.752Z,58.25
2022-08-16T23:41:34.987Z,58.66
2022-08-16T23:44:02.080Z,58.69
2022-08-16T23:46:49.506Z,58.96
2022-08-16T23:49:58.706Z,59.01
2022-08-16T23:52:08.894Z,59.37
2022-08-16T23:54:36.438Z,59.56
2022-08-16T23:57:03.869Z,59.42
2022-08-16T23:59:35.282Z,59.60
